Lackland, Texas
Current Conditions -  °F | °C
As of 7:12 AM on Friday 28 Nov 2014 (Local Time) from KSKF Reporting Station
Broken Clouds Broken Clouds  
Wind Chill: 36°   Ceiling: 900
Heat Index: 39°   Visibility: 10mi
Dew Point: 37°   Wind: 5mph
Humidity: 93%   Direction: 340°NNW
Pressure: 30.3"   Gusts: NA
Location:  29.3853°N, 98.6099°W
Report Text: KSKF 281312Z AUTO 34004KT 10SM BKN009 04/03 A3030 RMK AO2 BKN V SCT $
Loading
Personal Weather Stations






























Interactive Weather Map New forecast layout! Learn more

10-Day Weather Forecast

Advertisements
Track Severe Weather on mobile